sensor_id;sensor_type;location;lat;lon;timestamp;P1;durP1;ratioP1;P2;durP2;ratioP2
23115;SDS011;11727;52.134;5.052;2022-08-19T00:02:13;1.65;;;1.10;;
23115;SDS011;11727;52.134;5.052;2022-08-19T00:04:39;3.05;;;1.70;;
23115;SDS011;11727;52.134;5.052;2022-08-19T00:07:05;2.25;;;1.13;;
23115;SDS011;11727;52.134;5.052;2022-08-19T00:09:31;2.17;;;1.42;;
23115;SDS011;11727;52.134;5.052;2022-08-19T00:11:57;1.65;;;1.15;;
23115;SDS011;11727;52.134;5.052;2022-08-19T00:14:24;4.65;;;1.65;;
23115;SDS011;11727;52.134;5.052;2022-08-19T00:16:56;3.10;;;1.65;;
23115;SDS011;11727;52.134;5.052;2022-08-19T00:19:22;1.98;;;1.50;;
23115;SDS011;11727;52.134;5.052;2022-08-19T00:21:49;2.40;;;1.37;;
23115;SDS011;11727;52.134;5.052;2022-08-19T00:24:15;4.55;;;1.60;;
23115;SDS011;11727;52.134;5.052;2022-08-19T00:26:42;2.33;;;1.63;;
23115;SDS011;11727;52.134;5.052;2022-08-19T00:29:10;1.85;;;0.95;;
23115;SDS011;11727;52.134;5.052;2022-08-19T00:31:37;2.20;;;1.38;;
23115;SDS011;11727;52.134;5.052;2022-08-19T00:34:03;2.15;;;1.58;;
23115;SDS011;11727;52.134;5.052;2022-08-19T00:36:29;2.50;;;1.52;;
23115;SDS011;11727;52.134;5.052;2022-08-19T00:38:54;3.92;;;1.63;;
23115;SDS011;11727;52.134;5.052;2022-08-19T00:41:23;3.30;;;1.95;;
23115;SDS011;11727;52.134;5.052;2022-08-19T00:44:06;2.42;;;1.48;;
23115;SDS011;11727;52.134;5.052;2022-08-19T00:46:36;2.95;;;1.73;;
23115;SDS011;11727;52.134;5.052;2022-08-19T00:49:05;2.28;;;1.33;;
23115;SDS011;11727;52.134;5.052;2022-08-19T00:51:37;2.60;;;1.80;;
23115;SDS011;11727;52.134;5.052;2022-08-19T00:54:02;1.98;;;1.27;;
23115;SDS011;11727;52.134;5.052;2022-08-19T00:56:29;3.22;;;1.95;;
23115;SDS011;11727;52.134;5.052;2022-08-19T00:58:56;3.15;;;1.77;;
23115;SDS011;11727;52.134;5.052;2022-08-19T01:01:24;5.82;;;1.80;;
23115;SDS011;11727;52.134;5.052;2022-08-19T01:03:50;6.95;;;2.00;;
23115;SDS011;11727;52.134;5.052;2022-08-19T01:06:16;5.55;;;2.03;;
23115;SDS011;11727;52.134;5.052;2022-08-19T01:08:42;4.00;;;2.05;;
23115;SDS011;11727;52.134;5.052;2022-08-19T01:11:07;3.33;;;2.10;;
23115;SDS011;11727;52.134;5.052;2022-08-19T01:13:33;3.95;;;2.15;;
23115;SDS011;11727;52.134;5.052;2022-08-19T01:16:02;6.28;;;3.20;;
23115;SDS011;11727;52.134;5.052;2022-08-19T01:18:30;6.88;;;2.92;;
23115;SDS011;11727;52.134;5.052;2022-08-19T01:20:58;4.10;;;2.47;;
23115;SDS011;11727;52.134;5.052;2022-08-19T01:23:31;9.18;;;3.60;;
23115;SDS011;11727;52.134;5.052;2022-08-19T01:26:13;6.80;;;3.00;;
23115;SDS011;11727;52.134;5.052;2022-08-19T01:28:44;7.28;;;3.33;;
23115;SDS011;11727;52.134;5.052;2022-08-19T01:31:16;6.63;;;3.55;;
23115;SDS011;11727;52.134;5.052;2022-08-19T01:33:49;9.07;;;3.80;;
23115;SDS011;11727;52.134;5.052;2022-08-19T01:38:57;9.25;;;4.75;;
23115;SDS011;11727;52.134;5.052;2022-08-19T01:43:52;14.50;;;5.68;;
23115;SDS011;11727;52.134;5.052;2022-08-19T01:46:18;10.43;;;5.65;;
23115;SDS011;11727;52.134;5.052;2022-08-19T01:48:44;14.48;;;6.22;;
23115;SDS011;11727;52.134;5.052;2022-08-19T01:51:11;9.10;;;5.90;;
23115;SDS011;11727;52.134;5.052;2022-08-19T01:53:38;12.57;;;6.30;;
23115;SDS011;11727;52.134;5.052;2022-08-19T01:56:04;9.32;;;6.07;;
23115;SDS011;11727;52.134;5.052;2022-08-19T01:58:32;12.85;;;7.43;;
23115;SDS011;11727;52.134;5.052;2022-08-19T02:01:02;8.95;;;5.10;;
23115;SDS011;11727;52.134;5.052;2022-08-19T02:05:59;11.73;;;6.35;;
23115;SDS011;11727;52.134;5.052;2022-08-19T02:08:27;13.45;;;6.40;;
23115;SDS011;11727;52.134;5.052;2022-08-19T02:10:54;10.57;;;5.60;;
23115;SDS011;11727;52.134;5.052;2022-08-19T02:13:19;10.73;;;6.50;;
23115;SDS011;11727;52.134;5.052;2022-08-19T02:15:45;11.48;;;6.15;;
23115;SDS011;11727;52.134;5.052;2022-08-19T02:18:11;9.20;;;5.78;;
23115;SDS011;11727;52.134;5.052;2022-08-19T02:20:38;13.18;;;6.47;;
23115;SDS011;11727;52.134;5.052;2022-08-19T02:23:04;13.70;;;7.28;;
23115;SDS011;11727;52.134;5.052;2022-08-19T02:25:31;10.88;;;5.95;;
23115;SDS011;11727;52.134;5.052;2022-08-19T02:27:57;12.40;;;6.22;;
23115;SDS011;11727;52.134;5.052;2022-08-19T02:30:23;11.07;;;6.13;;
23115;SDS011;11727;52.134;5.052;2022-08-19T02:32:49;12.60;;;5.85;;
23115;SDS011;11727;52.134;5.052;2022-08-19T02:35:16;13.55;;;6.47;;
23115;SDS011;11727;52.134;5.052;2022-08-19T02:37:42;11.68;;;7.00;;
23115;SDS011;11727;52.134;5.052;2022-08-19T02:40:27;19.15;;;8.50;;
23115;SDS011;11727;52.134;5.052;2022-08-19T02:42:53;11.55;;;6.30;;
23115;SDS011;11727;52.134;5.052;2022-08-19T02:45:19;12.13;;;6.20;;
23115;SDS011;11727;52.134;5.052;2022-08-19T02:47:45;10.57;;;6.35;;
23115;SDS011;11727;52.134;5.052;2022-08-19T02:50:11;14.45;;;6.63;;
23115;SDS011;11727;52.134;5.052;2022-08-19T02:52:37;16.00;;;6.47;;
23115;SDS011;11727;52.134;5.052;2022-08-19T02:55:03;11.07;;;6.28;;
23115;SDS011;11727;52.134;5.052;2022-08-19T02:57:30;11.23;;;5.60;;
23115;SDS011;11727;52.134;5.052;2022-08-19T02:59:56;10.02;;;6.00;;
23115;SDS011;11727;52.134;5.052;2022-08-19T03:02:22;14.20;;;6.65;;
23115;SDS011;11727;52.134;5.052;2022-08-19T03:04:47;16.02;;;7.03;;
23115;SDS011;11727;52.134;5.052;2022-08-19T03:07:14;14.93;;;7.30;;
23115;SDS011;11727;52.134;5.052;2022-08-19T03:09:40;13.87;;;6.70;;
23115;SDS011;11727;52.134;5.052;2022-08-19T03:12:07;12.15;;;6.80;;
23115;SDS011;11727;52.134;5.052;2022-08-19T03:14:34;11.30;;;6.00;;
23115;SDS011;11727;52.134;5.052;2022-08-19T03:17:00;15.23;;;6.57;;
23115;SDS011;11727;52.134;5.052;2022-08-19T03:19:26;11.55;;;7.07;;
23115;SDS011;11727;52.134;5.052;2022-08-19T03:21:52;13.45;;;7.65;;
23115;SDS011;11727;52.134;5.052;2022-08-19T03:24:19;13.95;;;7.55;;
23115;SDS011;11727;52.134;5.052;2022-08-19T03:26:49;12.90;;;6.80;;
23115;SDS011;11727;52.134;5.052;2022-08-19T03:29:21;15.32;;;8.27;;
23115;SDS011;11727;52.134;5.052;2022-08-19T03:31:47;15.25;;;7.43;;
23115;SDS011;11727;52.134;5.052;2022-08-19T03:34:19;17.13;;;7.45;;
23115;SDS011;11727;52.134;5.052;2022-08-19T03:36:51;12.43;;;7.10;;
23115;SDS011;11727;52.134;5.052;2022-08-19T03:39:19;15.05;;;7.10;;
23115;SDS011;11727;52.134;5.052;2022-08-19T03:41:45;12.25;;;7.07;;
23115;SDS011;11727;52.134;5.052;2022-08-19T03:44:20;17.27;;;7.07;;
23115;SDS011;11727;52.134;5.052;2022-08-19T03:46:48;13.93;;;6.43;;
23115;SDS011;11727;52.134;5.052;2022-08-19T03:49:16;16.27;;;6.93;;
23115;SDS011;11727;52.134;5.052;2022-08-19T03:51:42;14.07;;;6.97;;
23115;SDS011;11727;52.134;5.052;2022-08-19T03:54:09;13.45;;;6.68;;
23115;SDS011;11727;52.134;5.052;2022-08-19T03:56:38;13.15;;;6.85;;
23115;SDS011;11727;52.134;5.052;2022-08-19T03:59:05;13.75;;;7.75;;
23115;SDS011;11727;52.134;5.052;2022-08-19T04:01:34;14.85;;;6.82;;
23115;SDS011;11727;52.134;5.052;2022-08-19T04:04:00;13.27;;;6.70;;
23115;SDS011;11727;52.134;5.052;2022-08-19T04:06:27;14.02;;;7.85;;
23115;SDS011;11727;52.134;5.052;2022-08-19T04:08:56;12.40;;;6.65;;
23115;SDS011;11727;52.134;5.052;2022-08-19T04:11:31;13.27;;;6.93;;
23115;SDS011;11727;52.134;5.052;2022-08-19T04:14:06;12.20;;;7.05;;
23115;SDS011;11727;52.134;5.052;2022-08-19T04:16:34;21.02;;;7.72;;
23115;SDS011;11727;52.134;5.052;2022-08-19T04:19:00;13.50;;;6.85;;
23115;SDS011;11727;52.134;5.052;2022-08-19T04:23:54;13.20;;;6.85;;
23115;SDS011;11727;52.134;5.052;2022-08-19T04:26:24;13.93;;;7.93;;
23115;SDS011;11727;52.134;5.052;2022-08-19T04:28:52;13.73;;;6.78;;
23115;SDS011;11727;52.134;5.052;2022-08-19T04:31:20;19.38;;;8.27;;
23115;SDS011;11727;52.134;5.052;2022-08-19T04:33:47;17.83;;;8.15;;
23115;SDS011;11727;52.134;5.052;2022-08-19T04:36:17;14.60;;;8.23;;
23115;SDS011;11727;52.134;5.052;2022-08-19T04:38:45;14.27;;;8.20;;
23115;SDS011;11727;52.134;5.052;2022-08-19T04:41:14;16.17;;;7.97;;
23115;SDS011;11727;52.134;5.052;2022-08-19T04:43:59;20.92;;;9.43;;
23115;SDS011;11727;52.134;5.052;2022-08-19T04:46:25;18.58;;;8.75;;
23115;SDS011;11727;52.134;5.052;2022-08-19T04:48:51;17.17;;;8.50;;
23115;SDS011;11727;52.134;5.052;2022-08-19T04:51:17;20.55;;;8.48;;
23115;SDS011;11727;52.134;5.052;2022-08-19T04:53:43;20.77;;;9.63;;
23115;SDS011;11727;52.134;5.052;2022-08-19T04:56:14;17.17;;;9.98;;
23115;SDS011;11727;52.134;5.052;2022-08-19T04:58:42;22.30;;;10.30;;
23115;SDS011;11727;52.134;5.052;2022-08-19T05:01:11;18.93;;;10.50;;
23115;SDS011;11727;52.134;5.052;2022-08-19T05:03:38;32.55;;;10.95;;
23115;SDS011;11727;52.134;5.052;2022-08-19T05:06:07;28.42;;;12.57;;
23115;SDS011;11727;52.134;5.052;2022-08-19T05:08:35;26.15;;;11.70;;
23115;SDS011;11727;52.134;5.052;2022-08-19T05:11:14;28.75;;;13.27;;
23115;SDS011;11727;52.134;5.052;2022-08-19T05:13:43;27.52;;;11.68;;
23115;SDS011;11727;52.134;5.052;2022-08-19T05:16:10;26.58;;;12.75;;
23115;SDS011;11727;52.134;5.052;2022-08-19T05:18:37;22.85;;;10.90;;
23115;SDS011;11727;52.134;5.052;2022-08-19T05:21:26;32.38;;;12.35;;
23115;SDS011;11727;52.134;5.052;2022-08-19T05:24:11;26.92;;;11.85;;
23115;SDS011;11727;52.134;5.052;2022-08-19T05:26:39;26.83;;;12.05;;
23115;SDS011;11727;52.134;5.052;2022-08-19T05:29:08;33.60;;;13.75;;
23115;SDS011;11727;52.134;5.052;2022-08-19T05:31:35;37.40;;;15.00;;
23115;SDS011;11727;52.134;5.052;2022-08-19T05:34:03;30.17;;;14.75;;
23115;SDS011;11727;52.134;5.052;2022-08-19T05:36:32;33.45;;;13.73;;
23115;SDS011;11727;52.134;5.052;2022-08-19T05:39:00;30.73;;;14.23;;
23115;SDS011;11727;52.134;5.052;2022-08-19T05:41:26;40.63;;;16.20;;
23115;SDS011;11727;52.134;5.052;2022-08-19T05:43:55;35.42;;;14.82;;
23115;SDS011;11727;52.134;5.052;2022-08-19T05:46:25;29.90;;;13.38;;
23115;SDS011;11727;52.134;5.052;2022-08-19T05:48:51;34.25;;;13.23;;
23115;SDS011;11727;52.134;5.052;2022-08-19T05:51:17;29.05;;;14.20;;
23115;SDS011;11727;52.134;5.052;2022-08-19T05:53:42;32.38;;;13.95;;
23115;SDS011;11727;52.134;5.052;2022-08-19T05:56:12;30.60;;;14.25;;
23115;SDS011;11727;52.134;5.052;2022-08-19T05:58:39;39.95;;;15.57;;
23115;SDS011;11727;52.134;5.052;2022-08-19T06:01:09;35.83;;;15.02;;
23115;SDS011;11727;52.134;5.052;2022-08-19T06:03:44;43.05;;;16.02;;
23115;SDS011;11727;52.134;5.052;2022-08-19T06:06:11;31.88;;;13.32;;
23115;SDS011;11727;52.134;5.052;2022-08-19T06:11:21;28.50;;;13.13;;
23115;SDS011;11727;52.134;5.052;2022-08-19T06:13:59;44.15;;;16.95;;
23115;SDS011;11727;52.134;5.052;2022-08-19T06:16:27;42.88;;;15.95;;
23115;SDS011;11727;52.134;5.052;2022-08-19T06:18:54;46.45;;;16.83;;
23115;SDS011;11727;52.134;5.052;2022-08-19T06:21:22;36.63;;;15.57;;
23115;SDS011;11727;52.134;5.052;2022-08-19T06:23:50;39.13;;;15.07;;
23115;SDS011;11727;52.134;5.052;2022-08-19T06:26:17;46.35;;;16.48;;
23115;SDS011;11727;52.134;5.052;2022-08-19T06:31:12;41.55;;;16.00;;
23115;SDS011;11727;52.134;5.052;2022-08-19T06:33:48;46.10;;;16.38;;
23115;SDS011;11727;52.134;5.052;2022-08-19T06:38:50;42.63;;;15.23;;
23115;SDS011;11727;52.134;5.052;2022-08-19T06:41:16;45.85;;;15.13;;
23115;SDS011;11727;52.134;5.052;2022-08-19T06:43:41;40.65;;;15.70;;
23115;SDS011;11727;52.134;5.052;2022-08-19T06:46:11;45.95;;;17.35;;
23115;SDS011;11727;52.134;5.052;2022-08-19T06:48:39;40.83;;;16.15;;
23115;SDS011;11727;52.134;5.052;2022-08-19T06:51:05;44.70;;;17.42;;
23115;SDS011;11727;52.134;5.052;2022-08-19T06:53:31;39.53;;;15.82;;
23115;SDS011;11727;52.134;5.052;2022-08-19T06:55:57;41.40;;;17.15;;
23115;SDS011;11727;52.134;5.052;2022-08-19T06:58:25;43.13;;;18.35;;
23115;SDS011;11727;52.134;5.052;2022-08-19T07:00:51;41.47;;;16.63;;
23115;SDS011;11727;52.134;5.052;2022-08-19T07:03:16;40.45;;;17.98;;
23115;SDS011;11727;52.134;5.052;2022-08-19T07:05:42;41.78;;;17.63;;
23115;SDS011;11727;52.134;5.052;2022-08-19T07:08:08;43.20;;;16.85;;
23115;SDS011;11727;52.134;5.052;2022-08-19T07:10:34;43.13;;;18.75;;
23115;SDS011;11727;52.134;5.052;2022-08-19T07:13:03;48.30;;;19.45;;
23115;SDS011;11727;52.134;5.052;2022-08-19T07:15:28;41.70;;;18.27;;
23115;SDS011;11727;52.134;5.052;2022-08-19T07:17:55;49.83;;;17.83;;
23115;SDS011;11727;52.134;5.052;2022-08-19T07:20:21;36.35;;;16.30;;
23115;SDS011;11727;52.134;5.052;2022-08-19T07:22:46;46.70;;;18.35;;
23115;SDS011;11727;52.134;5.052;2022-08-19T07:25:12;41.00;;;18.92;;
23115;SDS011;11727;52.134;5.052;2022-08-19T07:27:38;47.22;;;19.00;;
23115;SDS011;11727;52.134;5.052;2022-08-19T07:30:04;50.50;;;19.80;;
23115;SDS011;11727;52.134;5.052;2022-08-19T07:32:33;42.42;;;17.80;;
23115;SDS011;11727;52.134;5.052;2022-08-19T07:34:59;43.35;;;18.48;;
23115;SDS011;11727;52.134;5.052;2022-08-19T07:37:25;41.53;;;18.15;;
23115;SDS011;11727;52.134;5.052;2022-08-19T07:39:53;42.25;;;18.27;;
23115;SDS011;11727;52.134;5.052;2022-08-19T07:42:19;45.60;;;19.20;;
23115;SDS011;11727;52.134;5.052;2022-08-19T07:44:46;45.40;;;20.40;;
23115;SDS011;11727;52.134;5.052;2022-08-19T07:47:11;40.38;;;17.55;;
23115;SDS011;11727;52.134;5.052;2022-08-19T07:49:37;51.33;;;19.00;;
23115;SDS011;11727;52.134;5.052;2022-08-19T07:52:05;47.08;;;18.65;;
23115;SDS011;11727;52.134;5.052;2022-08-19T07:54:36;47.55;;;18.23;;
23115;SDS011;11727;52.134;5.052;2022-08-19T07:57:03;42.42;;;17.40;;
23115;SDS011;11727;52.134;5.052;2022-08-19T07:59:30;41.63;;;18.57;;
23115;SDS011;11727;52.134;5.052;2022-08-19T08:01:56;35.28;;;17.58;;
23115;SDS011;11727;52.134;5.052;2022-08-19T08:04:24;42.95;;;18.10;;
23115;SDS011;11727;52.134;5.052;2022-08-19T08:07:11;33.65;;;16.95;;
23115;SDS011;11727;52.134;5.052;2022-08-19T08:09:56;36.00;;;17.27;;
23115;SDS011;11727;52.134;5.052;2022-08-19T08:12:24;41.03;;;19.50;;
23115;SDS011;11727;52.134;5.052;2022-08-19T08:14:56;37.85;;;18.30;;
23115;SDS011;11727;52.134;5.052;2022-08-19T08:17:25;47.85;;;19.65;;
23115;SDS011;11727;52.134;5.052;2022-08-19T08:19:52;35.30;;;17.80;;
23115;SDS011;11727;52.134;5.052;2022-08-19T08:22:19;43.47;;;20.67;;
23115;SDS011;11727;52.134;5.052;2022-08-19T08:25:05;32.10;;;16.90;;
23115;SDS011;11727;52.134;5.052;2022-08-19T08:30:03;40.00;;;18.00;;
23115;SDS011;11727;52.134;5.052;2022-08-19T08:32:34;35.28;;;15.35;;
23115;SDS011;11727;52.134;5.052;2022-08-19T08:35:04;33.30;;;17.00;;
23115;SDS011;11727;52.134;5.052;2022-08-19T08:37:32;38.80;;;18.00;;
23115;SDS011;11727;52.134;5.052;2022-08-19T08:39:57;37.03;;;17.25;;
23115;SDS011;11727;52.134;5.052;2022-08-19T08:42:25;40.55;;;18.30;;
23115;SDS011;11727;52.134;5.052;2022-08-19T08:45:00;31.48;;;15.77;;
23115;SDS011;11727;52.134;5.052;2022-08-19T08:47:31;32.35;;;15.77;;
23115;SDS011;11727;52.134;5.052;2022-08-19T08:52:36;34.03;;;16.83;;
23115;SDS011;11727;52.134;5.052;2022-08-19T08:55:10;35.20;;;17.27;;
23115;SDS011;11727;52.134;5.052;2022-08-19T09:00:19;27.20;;;15.52;;
23115;SDS011;11727;52.134;5.052;2022-08-19T09:02:51;35.08;;;16.98;;
23115;SDS011;11727;52.134;5.052;2022-08-19T09:05:19;30.70;;;15.57;;
23115;SDS011;11727;52.134;5.052;2022-08-19T09:10:29;29.80;;;14.63;;
23115;SDS011;11727;52.134;5.052;2022-08-19T09:15:36;27.67;;;14.85;;
23115;SDS011;11727;52.134;5.052;2022-08-19T09:18:07;29.38;;;14.70;;
23115;SDS011;11727;52.134;5.052;2022-08-19T09:20:33;30.38;;;15.63;;
23115;SDS011;11727;52.134;5.052;2022-08-19T09:22:59;26.80;;;14.25;;
23115;SDS011;11727;52.134;5.052;2022-08-19T09:25:25;31.90;;;16.23;;
23115;SDS011;11727;52.134;5.052;2022-08-19T09:27:51;30.75;;;14.45;;
23115;SDS011;11727;52.134;5.052;2022-08-19T09:30:26;24.08;;;14.15;;
23115;SDS011;11727;52.134;5.052;2022-08-19T09:32:53;27.63;;;14.15;;
23115;SDS011;11727;52.134;5.052;2022-08-19T09:35:21;27.80;;;13.87;;
23115;SDS011;11727;52.134;5.052;2022-08-19T09:37:48;27.45;;;14.27;;
23115;SDS011;11727;52.134;5.052;2022-08-19T09:40:14;25.55;;;14.32;;
23115;SDS011;11727;52.134;5.052;2022-08-19T09:42:41;23.17;;;13.48;;
23115;SDS011;11727;52.134;5.052;2022-08-19T09:45:08;21.80;;;12.88;;
23115;SDS011;11727;52.134;5.052;2022-08-19T09:47:35;29.17;;;12.93;;
23115;SDS011;11727;52.134;5.052;2022-08-19T09:50:03;25.15;;;12.57;;
23115;SDS011;11727;52.134;5.052;2022-08-19T09:52:33;20.00;;;11.02;;
23115;SDS011;11727;52.134;5.052;2022-08-19T09:55:02;18.95;;;11.55;;
23115;SDS011;11727;52.134;5.052;2022-08-19T09:57:29;17.08;;;9.65;;
23115;SDS011;11727;52.134;5.052;2022-08-19T09:59:54;18.20;;;9.50;;
23115;SDS011;11727;52.134;5.052;2022-08-19T10:02:20;15.05;;;8.68;;
23115;SDS011;11727;52.134;5.052;2022-08-19T10:04:45;16.42;;;8.60;;
23115;SDS011;11727;52.134;5.052;2022-08-19T10:07:30;13.48;;;7.32;;
23115;SDS011;11727;52.134;5.052;2022-08-19T10:09:55;16.42;;;8.63;;
23115;SDS011;11727;52.134;5.052;2022-08-19T10:12:21;13.68;;;6.97;;
23115;SDS011;11727;52.134;5.052;2022-08-19T10:14:47;11.98;;;6.40;;
23115;SDS011;11727;52.134;5.052;2022-08-19T10:17:13;11.45;;;5.90;;
23115;SDS011;11727;52.134;5.052;2022-08-19T10:19:39;13.27;;;6.70;;
23115;SDS011;11727;52.134;5.052;2022-08-19T10:22:05;8.65;;;5.63;;
23115;SDS011;11727;52.134;5.052;2022-08-19T10:24:32;9.93;;;6.38;;
23115;SDS011;11727;52.134;5.052;2022-08-19T10:27:01;11.98;;;4.72;;
23115;SDS011;11727;52.134;5.052;2022-08-19T10:29:31;10.18;;;7.35;;
23115;SDS011;11727;52.134;5.052;2022-08-19T10:32:03;11.25;;;5.93;;
23115;SDS011;11727;52.134;5.052;2022-08-19T10:34:33;13.30;;;6.45;;
23115;SDS011;11727;52.134;5.052;2022-08-19T10:39:27;14.80;;;7.05;;
23115;SDS011;11727;52.134;5.052;2022-08-19T10:41:54;10.15;;;6.90;;
23115;SDS011;11727;52.134;5.052;2022-08-19T10:44:21;13.90;;;6.67;;
23115;SDS011;11727;52.134;5.052;2022-08-19T10:46:48;13.00;;;7.20;;
23115;SDS011;11727;52.134;5.052;2022-08-19T10:49:14;12.18;;;7.95;;
23115;SDS011;11727;52.134;5.052;2022-08-19T10:51:40;11.88;;;7.03;;
23115;SDS011;11727;52.134;5.052;2022-08-19T10:54:25;13.07;;;7.43;;
23115;SDS011;11727;52.134;5.052;2022-08-19T10:57:09;11.60;;;7.38;;
23115;SDS011;11727;52.134;5.052;2022-08-19T10:59:36;10.27;;;6.47;;
23115;SDS011;11727;52.134;5.052;2022-08-19T11:02:03;12.95;;;7.13;;
23115;SDS011;11727;52.134;5.052;2022-08-19T11:04:30;15.07;;;7.97;;
23115;SDS011;11727;52.134;5.052;2022-08-19T11:06:57;12.63;;;6.63;;
23115;SDS011;11727;52.134;5.052;2022-08-19T11:09:23;8.90;;;6.55;;
23115;SDS011;11727;52.134;5.052;2022-08-19T11:11:51;17.23;;;7.53;;
23115;SDS011;11727;52.134;5.052;2022-08-19T11:14:20;8.02;;;5.70;;
23115;SDS011;11727;52.134;5.052;2022-08-19T11:16:47;12.45;;;7.35;;
23115;SDS011;11727;52.134;5.052;2022-08-19T11:19:13;10.82;;;7.10;;
23115;SDS011;11727;52.134;5.052;2022-08-19T11:21:42;12.18;;;7.43;;
23115;SDS011;11727;52.134;5.052;2022-08-19T11:24:11;16.55;;;7.30;;
23115;SDS011;11727;52.134;5.052;2022-08-19T11:26:43;11.02;;;8.13;;
23115;SDS011;11727;52.134;5.052;2022-08-19T11:29:10;16.58;;;8.07;;
23115;SDS011;11727;52.134;5.052;2022-08-19T11:31:39;11.98;;;8.57;;
23115;SDS011;11727;52.134;5.052;2022-08-19T11:34:08;16.67;;;9.13;;
23115;SDS011;11727;52.134;5.052;2022-08-19T11:36:37;17.38;;;8.15;;
23115;SDS011;11727;52.134;5.052;2022-08-19T11:39:07;14.95;;;8.40;;
23115;SDS011;11727;52.134;5.052;2022-08-19T11:41:33;14.48;;;8.05;;
23115;SDS011;11727;52.134;5.052;2022-08-19T11:43:59;14.30;;;8.50;;
23115;SDS011;11727;52.134;5.052;2022-08-19T11:46:26;11.85;;;7.90;;
23115;SDS011;11727;52.134;5.052;2022-08-19T11:48:54;9.95;;;7.47;;
23115;SDS011;11727;52.134;5.052;2022-08-19T11:51:21;14.50;;;7.88;;
23115;SDS011;11727;52.134;5.052;2022-08-19T11:53:49;10.15;;;6.60;;
23115;SDS011;11727;52.134;5.052;2022-08-19T11:56:15;15.43;;;8.00;;
23115;SDS011;11727;52.134;5.052;2022-08-19T11:58:42;14.75;;;8.10;;
23115;SDS011;11727;52.134;5.052;2022-08-19T12:01:08;11.05;;;6.35;;
23115;SDS011;11727;52.134;5.052;2022-08-19T12:03:40;11.55;;;6.22;;
23115;SDS011;11727;52.134;5.052;2022-08-19T12:06:09;9.88;;;6.57;;
23115;SDS011;11727;52.134;5.052;2022-08-19T12:08:37;10.43;;;6.93;;
23115;SDS011;11727;52.134;5.052;2022-08-19T12:11:03;11.57;;;6.20;;
23115;SDS011;11727;52.134;5.052;2022-08-19T12:13:30;10.15;;;6.72;;
23115;SDS011;11727;52.134;5.052;2022-08-19T12:15:56;8.77;;;5.65;;
23115;SDS011;11727;52.134;5.052;2022-08-19T12:18:22;9.60;;;5.97;;
23115;SDS011;11727;52.134;5.052;2022-08-19T12:20:50;12.80;;;6.93;;
23115;SDS011;11727;52.134;5.052;2022-08-19T12:23:16;10.63;;;6.77;;
23115;SDS011;11727;52.134;5.052;2022-08-19T12:25:45;10.80;;;5.40;;
23115;SDS011;11727;52.134;5.052;2022-08-19T12:28:15;10.68;;;6.07;;
23115;SDS011;11727;52.134;5.052;2022-08-19T12:30:41;8.95;;;5.93;;
23115;SDS011;11727;52.134;5.052;2022-08-19T12:33:07;10.63;;;7.00;;
23115;SDS011;11727;52.134;5.052;2022-08-19T12:35:33;13.10;;;5.32;;
23115;SDS011;11727;52.134;5.052;2022-08-19T12:37:59;8.45;;;3.97;;
23115;SDS011;11727;52.134;5.052;2022-08-19T12:40:26;5.50;;;3.75;;
23115;SDS011;11727;52.134;5.052;2022-08-19T12:42:52;5.95;;;3.95;;
23115;SDS011;11727;52.134;5.052;2022-08-19T12:45:19;7.47;;;3.88;;
23115;SDS011;11727;52.134;5.052;2022-08-19T12:47:44;8.18;;;4.03;;
23115;SDS011;11727;52.134;5.052;2022-08-19T12:50:11;5.60;;;3.83;;
23115;SDS011;11727;52.134;5.052;2022-08-19T12:52:37;5.65;;;4.30;;
23115;SDS011;11727;52.134;5.052;2022-08-19T12:55:03;5.38;;;3.92;;
23115;SDS011;11727;52.134;5.052;2022-08-19T12:59:59;9.93;;;4.75;;
23115;SDS011;11727;52.134;5.052;2022-08-19T13:04:52;16.90;;;4.68;;
23115;SDS011;11727;52.134;5.052;2022-08-19T13:07:17;6.28;;;4.63;;
23115;SDS011;11727;52.134;5.052;2022-08-19T13:09:43;6.57;;;4.40;;
23115;SDS011;11727;52.134;5.052;2022-08-19T13:12:09;7.93;;;4.10;;
23115;SDS011;11727;52.134;5.052;2022-08-19T13:14:38;13.13;;;3.55;;
23115;SDS011;11727;52.134;5.052;2022-08-19T13:17:05;9.20;;;4.03;;
23115;SDS011;11727;52.134;5.052;2022-08-19T13:19:31;7.97;;;3.25;;
23115;SDS011;11727;52.134;5.052;2022-08-19T13:21:56;5.30;;;1.92;;
23115;SDS011;11727;52.134;5.052;2022-08-19T13:24:23;6.25;;;1.80;;
23115;SDS011;11727;52.134;5.052;2022-08-19T13:26:48;3.75;;;1.50;;
23115;SDS011;11727;52.134;5.052;2022-08-19T13:29:14;2.47;;;1.58;;
23115;SDS011;11727;52.134;5.052;2022-08-19T13:31:58;2.55;;;1.35;;
23115;SDS011;11727;52.134;5.052;2022-08-19T13:34:42;3.92;;;1.60;;
23115;SDS011;11727;52.134;5.052;2022-08-19T13:37:08;3.63;;;1.48;;
23115;SDS011;11727;52.134;5.052;2022-08-19T13:39:34;2.67;;;1.23;;
23115;SDS011;11727;52.134;5.052;2022-08-19T13:42:00;6.10;;;1.48;;
23115;SDS011;11727;52.134;5.052;2022-08-19T13:47:00;4.50;;;1.63;;
23115;SDS011;11727;52.134;5.052;2022-08-19T13:49:31;2.05;;;1.23;;
23115;SDS011;11727;52.134;5.052;2022-08-19T13:51:58;2.38;;;1.48;;
23115;SDS011;11727;52.134;5.052;2022-08-19T13:54:24;3.95;;;2.47;;
23115;SDS011;11727;52.134;5.052;2022-08-19T13:56:49;4.25;;;1.77;;
23115;SDS011;11727;52.134;5.052;2022-08-19T13:59:15;2.83;;;1.73;;
23115;SDS011;11727;52.134;5.052;2022-08-19T14:01:45;2.53;;;1.80;;
23115;SDS011;11727;52.134;5.052;2022-08-19T14:04:11;2.67;;;1.77;;
23115;SDS011;11727;52.134;5.052;2022-08-19T14:06:36;2.03;;;1.27;;
23115;SDS011;11727;52.134;5.052;2022-08-19T14:09:05;4.35;;;2.20;;
23115;SDS011;11727;52.134;5.052;2022-08-19T14:11:30;8.10;;;1.90;;
23115;SDS011;11727;52.134;5.052;2022-08-19T14:13:56;4.82;;;2.65;;
23115;SDS011;11727;52.134;5.052;2022-08-19T14:16:24;4.72;;;2.00;;
23115;SDS011;11727;52.134;5.052;2022-08-19T14:18:52;4.03;;;2.30;;
23115;SDS011;11727;52.134;5.052;2022-08-19T14:21:20;2.67;;;1.52;;
23115;SDS011;11727;52.134;5.052;2022-08-19T14:23:47;2.53;;;1.63;;
23115;SDS011;11727;52.134;5.052;2022-08-19T14:26:14;4.68;;;1.60;;
23115;SDS011;11727;52.134;5.052;2022-08-19T14:28:42;2.35;;;1.10;;
23115;SDS011;11727;52.134;5.052;2022-08-19T14:31:09;2.20;;;1.58;;
23115;SDS011;11727;52.134;5.052;2022-08-19T14:33:35;2.65;;;1.88;;
23115;SDS011;11727;52.134;5.052;2022-08-19T14:36:01;3.67;;;1.75;;
23115;SDS011;11727;52.134;5.052;2022-08-19T14:38:27;3.00;;;1.80;;
23115;SDS011;11727;52.134;5.052;2022-08-19T14:41:04;4.28;;;1.98;;
23115;SDS011;11727;52.134;5.052;2022-08-19T14:43:33;2.65;;;1.92;;
23115;SDS011;11727;52.134;5.052;2022-08-19T14:45:59;3.20;;;1.70;;
23115;SDS011;11727;52.134;5.052;2022-08-19T14:48:24;3.20;;;1.60;;
23115;SDS011;11727;52.134;5.052;2022-08-19T14:50:51;4.10;;;1.73;;
23115;SDS011;11727;52.134;5.052;2022-08-19T14:53:17;2.22;;;1.40;;
23115;SDS011;11727;52.134;5.052;2022-08-19T14:55:43;4.47;;;1.60;;
23115;SDS011;11727;52.134;5.052;2022-08-19T14:58:10;3.65;;;2.13;;
23115;SDS011;11727;52.134;5.052;2022-08-19T15:00:36;2.70;;;1.73;;
23115;SDS011;11727;52.134;5.052;2022-08-19T15:03:02;2.50;;;1.63;;
23115;SDS011;11727;52.134;5.052;2022-08-19T15:05:27;1.73;;;1.33;;
23115;SDS011;11727;52.134;5.052;2022-08-19T15:07:53;1.50;;;1.35;;
23115;SDS011;11727;52.134;5.052;2022-08-19T15:10:21;1.58;;;1.15;;
23115;SDS011;11727;52.134;5.052;2022-08-19T15:12:48;3.22;;;1.90;;
23115;SDS011;11727;52.134;5.052;2022-08-19T15:15:14;7.03;;;2.08;;
23115;SDS011;11727;52.134;5.052;2022-08-19T15:17:42;3.80;;;2.47;;
23115;SDS011;11727;52.134;5.052;2022-08-19T15:20:09;3.65;;;1.85;;
23115;SDS011;11727;52.134;5.052;2022-08-19T15:22:37;3.58;;;2.08;;